Time;durP1;ratioP1;P1;durP2;ratioP2;P2;SDS_P1;SDS_P2;PMS_P1;PMS_P2;Temp;Humidity;BMP_temperature;BMP_pressure;BME280_temperature;BME280_humidity;BME280_pressure;Samples;Min_cycle;Max_cycle;Signal;HPM_P1;HPM_P2
2023/10/02 00:01:18;;;;;;;10.30;6.97;;;16.60;99.00;;;;;;10498265;28;20218;-81
2023/10/02 00:06:23;;;;;;;9.00;6.93;;;16.60;99.10;;;;;;10483723;28;20189;-82
2023/10/02 00:11:39;;;;;;;9.33;6.50;;;16.60;99.10;;;;;;10469873;28;20218;-82
2023/10/02 00:16:43;;;;;;;11.77;7.57;;;16.50;99.10;;;;;;10475345;28;20225;-82
2023/10/02 00:21:46;;;;;;;10.80;7.90;;;16.50;99.10;;;;;;10483574;28;20220;-82
2023/10/02 00:26:48;;;;;;;10.77;7.67;;;16.50;99.10;;;;;;10475961;28;20533;-82
2023/10/02 00:31:52;;;;;;;9.83;7.60;;;16.50;99.20;;;;;;10481940;28;20225;-82
2023/10/02 00:36:54;;;;;;;10.50;7.83;;;16.50;99.20;;;;;;10486855;28;20217;-81
2023/10/02 00:47:41;;;;;;;14.30;8.80;;;16.50;99.20;;;;;;10428924;28;20216;-80
2023/10/02 00:52:44;;;;;;;11.20;8.47;;;16.50;99.30;;;;;;10479438;28;20212;-81
2023/10/02 00:57:50;;;;;;;11.27;8.20;;;16.50;99.10;;;;;;10479868;28;20225;-81
2023/10/02 01:02:57;;;;;;;9.33;7.17;;;16.50;99.20;;;;;;10465498;28;20312;-80
2023/10/02 01:08:03;;;;;;;12.60;8.03;;;16.40;99.40;;;;;;10479491;28;20200;-81
2023/10/02 01:13:05;;;;;;;8.70;6.87;;;16.40;99.40;;;;;;10485210;28;20260;-81
2023/10/02 01:18:21;;;;;;;11.50;8.20;;;16.40;99.60;;;;;;10465064;28;20287;-82
2023/10/02 01:23:26;;;;;;;11.17;8.13;;;16.40;99.60;;;;;;10490342;28;20192;-82
2023/10/02 01:28:49;;;;;;;11.40;8.53;;;16.40;99.70;;;;;;10489609;28;20251;-82
2023/10/02 01:33:52;;;;;;;12.47;8.00;;;16.30;99.70;;;;;;10482585;28;20229;-82
2023/10/02 01:38:59;;;;;;;10.13;7.87;;;16.30;99.80;;;;;;10486638;28;20221;-82
2023/10/02 01:44:07;;;;;;;12.07;7.67;;;16.20;99.70;;;;;;10476872;28;20201;-82
2023/10/02 01:49:24;;;;;;;10.57;8.27;;;16.20;99.80;;;;;;10495136;28;20300;-82
2023/10/02 01:54:29;;;;;;;12.00;8.10;;;16.20;99.90;;;;;;10500328;28;20197;-82
2023/10/02 01:59:32;;;;;;;10.57;8.07;;;16.20;99.90;;;;;;10489431;28;20296;-81
2023/10/02 02:04:34;;;;;;;10.63;7.67;;;16.20;99.90;;;;;;10480405;28;20293;-82
2023/10/02 02:09:37;;;;;;;13.47;8.43;;;16.10;99.90;;;;;;10493651;28;20214;-81
2023/10/02 02:14:50;;;;;;;13.90;8.90;;;16.10;99.90;;;;;;10483856;28;20221;-82
2023/10/02 02:19:53;;;;;;;10.33;7.43;;;16.10;99.90;;;;;;10479543;28;20686;-81
2023/10/02 02:24:58;;;;;;;18.23;8.70;;;16.10;99.90;;;;;;10484745;28;20201;-81
2023/10/02 02:30:10;;;;;;;14.83;8.37;;;16.10;99.90;;;;;;10488513;28;20225;-81
2023/10/02 02:35:14;;;;;;;11.83;8.13;;;16.10;99.90;;;;;;10483669;28;20283;-81
2023/10/02 02:40:23;;;;;;;11.57;8.30;;;16.10;99.90;;;;;;10490672;28;20259;-81
2023/10/02 02:45:29;;;;;;;12.83;7.63;;;16.10;99.90;;;;;;10477343;28;20188;-79
2023/10/02 02:50:34;;;;;;;12.33;8.30;;;16.10;99.90;;;;;;10492972;28;20239;-81
2023/10/02 02:55:36;;;;;;;12.37;8.07;;;16.10;99.90;;;;;;10483648;28;20232;-80
2023/10/02 03:00:40;;;;;;;13.10;8.40;;;16.10;99.90;;;;;;10479833;28;20253;-81
2023/10/02 03:05:42;;;;;;;12.73;8.53;;;16.00;99.90;;;;;;10478533;28;20190;-81
2023/10/02 03:10:46;;;;;;;10.37;8.20;;;16.00;99.90;;;;;;10487039;28;20324;-81
2023/10/02 03:15:50;;;;;;;10.00;8.00;;;16.00;99.90;;;;;;10487676;28;20221;-81
2023/10/02 03:20:52;;;;;;;10.73;7.83;;;16.00;99.90;;;;;;10494092;28;20213;-81
2023/10/02 03:25:56;;;;;;;14.23;9.90;;;16.00;99.90;;;;;;10477649;28;20217;-81
2023/10/02 03:31:00;;;;;;;15.70;10.00;;;15.90;99.90;;;;;;10487812;28;20744;-81
2023/10/02 03:36:08;;;;;;;9.37;8.10;;;15.90;99.90;;;;;;10478615;28;20334;-81
2023/10/02 03:41:13;;;;;;;13.30;8.00;;;15.90;99.90;;;;;;10479910;28;20340;-81
2023/10/02 03:46:22;;;;;;;15.47;9.33;;;15.90;99.90;;;;;;10481757;28;20231;-81
2023/10/02 03:51:36;;;;;;;13.23;8.13;;;15.90;99.90;;;;;;10491061;28;20217;-81
2023/10/02 03:56:42;;;;;;;12.90;9.07;;;15.90;99.90;;;;;;10488585;28;20225;-80
2023/10/02 04:01:47;;;;;;;10.80;8.60;;;15.90;99.90;;;;;;10473084;28;20619;-81
2023/10/02 04:06:53;;;;;;;11.43;7.57;;;15.90;99.90;;;;;;10481061;28;20212;-81
2023/10/02 04:11:56;;;;;;;12.23;9.33;;;15.80;99.90;;;;;;10498280;28;20240;-81
2023/10/02 04:17:10;;;;;;;12.20;8.93;;;15.80;99.90;;;;;;10461382;28;20553;-81
2023/10/02 04:22:19;;;;;;;11.17;8.97;;;15.80;99.90;;;;;;10488677;28;20256;-81
2023/10/02 04:27:25;;;;;;;12.70;8.97;;;15.80;99.90;;;;;;10483321;28;20659;-81
2023/10/02 04:32:32;;;;;;;13.57;9.57;;;15.70;99.90;;;;;;10481176;28;20301;-81
2023/10/02 04:37:36;;;;;;;11.77;8.10;;;15.70;99.90;;;;;;10487890;28;20225;-81
2023/10/02 04:47:55;;;;;;;11.43;8.80;;;15.60;99.90;;;;;;10488125;28;20220;-80
2023/10/02 04:52:59;;;;;;;9.90;8.40;;;15.50;99.90;;;;;;10496550;28;20213;-80
2023/10/02 04:58:09;;;;;;;16.20;9.27;;;15.50;99.90;;;;;;10497542;28;20622;-81
2023/10/02 05:03:22;;;;;;;12.83;9.47;;;15.50;99.90;;;;;;10502643;28;20229;-81
2023/10/02 05:08:33;;;;;;;12.67;9.43;;;15.50;99.90;;;;;;10491480;28;20193;-80
2023/10/02 05:13:59;;;;;;;14.37;9.13;;;15.50;99.90;;;;;;10503264;28;20267;-81
2023/10/02 05:19:05;;;;;;;11.73;8.37;;;15.50;99.90;;;;;;10480020;28;20702;-81
2023/10/02 05:24:11;;;;;;;13.73;9.80;;;15.50;99.90;;;;;;10479082;28;20205;-81
2023/10/02 05:29:17;;;;;;;12.00;9.10;;;15.50;99.90;;;;;;10480007;28;20278;-80
2023/10/02 05:34:22;;;;;;;13.70;10.33;;;15.50;99.90;;;;;;10475111;28;20471;-80
2023/10/02 05:39:31;;;;;;;13.57;9.13;;;15.50;99.90;;;;;;10483668;28;20600;-80
2023/10/02 05:44:34;;;;;;;13.13;9.43;;;15.60;99.90;;;;;;10476322;28;20921;-80
2023/10/02 05:49:47;;;;;;;13.13;9.10;;;15.50;99.90;;;;;;10484131;28;20209;-81
2023/10/02 05:54:53;;;;;;;12.50;9.00;;;15.60;99.90;;;;;;10472107;28;20309;-80
2023/10/02 05:59:57;;;;;;;15.27;10.90;;;15.50;99.90;;;;;;10463992;28;20218;-81
2023/10/02 06:05:11;;;;;;;13.87;9.20;;;15.50;99.90;;;;;;10480429;28;20273;-78
2023/10/02 06:10:25;;;;;;;13.07;8.60;;;15.50;99.90;;;;;;10485701;28;20225;-81
2023/10/02 06:20:58;;;;;;;10.47;9.13;;;15.50;99.90;;;;;;10468276;28;20678;-81
2023/10/02 06:26:00;;;;;;;13.07;9.00;;;15.60;99.90;;;;;;10467342;28;20204;-79
2023/10/02 06:31:02;;;;;;;16.47;10.03;;;15.60;99.90;;;;;;10477971;28;20231;-81
2023/10/02 06:36:07;;;;;;;12.90;9.23;;;15.70;99.90;;;;;;10479489;28;20224;-80
2023/10/02 06:41:12;;;;;;;13.10;8.83;;;15.70;99.90;;;;;;10480503;28;20264;-80
2023/10/02 06:46:16;;;;;;;14.40;9.40;;;15.80;99.90;;;;;;10480911;28;20284;-80
2023/10/02 06:51:20;;;;;;;13.77;10.47;;;15.80;99.90;;;;;;10473471;28;20794;-81
2023/10/02 06:56:22;;;;;;;15.13;8.80;;;15.90;99.90;;;;;;10481165;28;20239;-80
2023/10/02 07:01:27;;;;;;;15.43;9.60;;;16.00;99.90;;;;;;10471582;28;20218;-81
2023/10/02 07:06:33;;;;;;;12.53;9.00;;;16.00;99.90;;;;;;10480919;28;20721;-81
2023/10/02 07:11:36;;;;;;;15.30;9.83;;;16.10;99.90;;;;;;10460825;28;20721;-81
2023/10/02 07:16:38;;;;;;;16.30;9.93;;;16.20;99.90;;;;;;10460801;28;20669;-80
2023/10/02 07:21:42;;;;;;;14.40;9.80;;;16.30;99.90;;;;;;10479391;28;20275;-81
2023/10/02 07:26:49;;;;;;;10.37;8.17;;;16.40;99.90;;;;;;10489781;28;20203;-80
2023/10/02 07:31:51;;;;;;;12.07;8.37;;;16.40;99.90;;;;;;10484471;28;20279;-80
2023/10/02 07:36:54;;;;;;;14.33;8.90;;;16.50;99.90;;;;;;10486331;28;20209;-80
2023/10/02 07:42:00;;;;;;;11.63;7.13;;;16.60;99.90;;;;;;10477943;28;20225;-80
2023/10/02 07:47:08;;;;;;;15.40;9.37;;;16.70;99.90;;;;;;10479914;28;20677;-81
2023/10/02 07:52:12;;;;;;;14.13;8.97;;;16.80;99.90;;;;;;10480011;28;20256;-80
2023/10/02 07:57:14;;;;;;;15.93;9.53;;;16.90;99.90;;;;;;10498773;28;20247;-81
2023/10/02 08:02:23;;;;;;;17.87;11.70;;;17.00;99.90;;;;;;10474228;28;20283;-80
2023/10/02 08:07:26;;;;;;;17.80;9.20;;;17.10;99.90;;;;;;10490645;28;20197;-80
2023/10/02 08:12:34;;;;;;;10.47;7.60;;;17.20;99.90;;;;;;10476462;28;20208;-81
2023/10/02 08:22:57;;;;;;;11.00;7.97;;;17.40;99.90;;;;;;10468495;28;20623;-80
2023/10/02 08:27:59;;;;;;;12.53;8.93;;;17.40;99.90;;;;;;10485639;28;20557;-80
2023/10/02 08:33:06;;;;;;;13.63;9.07;;;17.50;99.90;;;;;;10470490;28;20225;-80
2023/10/02 08:38:21;;;;;;;14.60;9.10;;;17.60;99.90;;;;;;10484645;28;20217;-80
2023/10/02 08:43:23;;;;;;;12.53;8.60;;;17.60;99.90;;;;;;10485000;28;20193;-81
2023/10/02 08:48:26;;;;;;;10.53;8.23;;;17.70;99.90;;;;;;10474379;28;20195;-81
2023/10/02 08:53:29;;;;;;;13.63;8.40;;;17.80;99.90;;;;;;10474469;28;20201;-81
2023/10/02 08:58:31;;;;;;;11.30;8.10;;;17.80;99.90;;;;;;10488908;28;20225;-81
2023/10/02 09:03:41;;;;;;;10.67;8.20;;;17.90;99.90;;;;;;10474057;28;20576;-81
2023/10/02 09:14:16;;;;;;;10.83;8.37;;;18.00;99.90;;;;;;10470118;28;20258;-82
2023/10/02 09:19:30;;;;;;;11.27;8.20;;;18.10;99.90;;;;;;10492587;28;20225;-81
2023/10/02 09:24:35;;;;;;;14.40;8.80;;;18.20;99.90;;;;;;10477218;28;20284;-81
2023/10/02 09:29:37;;;;;;;13.13;8.90;;;18.30;99.90;;;;;;10486500;28;20233;-82
2023/10/02 09:35:08;;;;;;;11.67;8.13;;;18.50;99.90;;;;;;10489908;28;20221;-82
2023/10/02 09:40:14;;;;;;;10.20;8.53;;;18.60;99.90;;;;;;10488037;28;20217;-82
2023/10/02 09:45:30;;;;;;;16.10;8.80;;;18.90;99.90;;;;;;10507531;28;20208;-82
2023/10/02 09:50:41;;;;;;;14.60;8.83;;;19.10;99.90;;;;;;10494186;28;20289;-82
2023/10/02 09:55:57;;;;;;;12.20;8.30;;;19.30;99.90;;;;;;10489626;28;20614;-82
2023/10/02 10:01:35;;;;;;;15.33;8.63;;;19.40;99.90;;;;;;10483334;28;20214;-82
2023/10/02 10:06:49;;;;;;;12.53;8.20;;;19.50;99.90;;;;;;10495267;28;20208;-82
2023/10/02 10:17:49;;;;;;;13.87;8.67;;;19.50;99.90;;;;;;10493531;28;20229;-82
2023/10/02 10:22:55;;;;;;;14.13;8.60;;;19.50;99.90;;;;;;10495822;28;20286;-81
2023/10/02 10:28:05;;;;;;;13.23;8.20;;;19.60;99.90;;;;;;10482902;28;20213;-82
2023/10/02 10:44:52;;;;;;;13.80;8.80;;;19.60;99.90;;;;;;10497093;28;20194;-80
2023/10/02 10:50:28;;;;;;;12.20;8.20;;;19.70;99.90;;;;;;10515521;28;20216;-80
2023/10/02 10:55:42;;;;;;;14.43;9.67;;;19.80;99.90;;;;;;10521254;28;20250;-81
2023/10/02 11:00:52;;;;;;;14.80;9.27;;;19.80;99.90;;;;;;10508758;28;20228;-80
2023/10/02 11:06:10;;;;;;;15.30;8.47;;;20.00;99.90;;;;;;10507397;28;20193;-81
2023/10/02 11:11:22;;;;;;;12.97;8.80;;;20.20;99.30;;;;;;10514835;28;20238;-80
2023/10/02 11:16:39;;;;;;;13.60;9.00;;;20.30;99.50;;;;;;10521016;28;20233;-81
2023/10/02 11:22:18;;;;;;;13.70;9.10;;;20.30;99.40;;;;;;10504589;28;20248;-81
2023/10/02 11:27:21;;;;;;;16.50;9.20;;;20.40;99.50;;;;;;10501527;28;20194;-81
2023/10/02 11:32:24;;;;;;;14.50;9.70;;;20.40;99.50;;;;;;10497457;28;20234;-80
2023/10/02 11:37:28;;;;;;;13.70;8.97;;;20.50;99.00;;;;;;10505430;28;20222;-80
2023/10/02 11:42:31;;;;;;;16.57;9.73;;;20.60;98.60;;;;;;10493560;28;20245;-80
2023/10/02 11:47:54;;;;;;;15.17;9.83;;;20.70;99.00;;;;;;10476770;28;20206;-79
2023/10/02 11:52:57;;;;;;;19.33;11.77;;;20.70;98.90;;;;;;10492587;28;20221;-81
2023/10/02 11:58:10;;;;;;;16.50;9.83;;;20.70;98.70;;;;;;10483419;28;20231;-80
2023/10/02 12:03:24;;;;;;;19.10;11.23;;;20.70;98.30;;;;;;10487041;28;20222;-81
2023/10/02 12:08:40;;;;;;;19.43;11.20;;;20.80;97.40;;;;;;10483419;28;20285;-80
2023/10/02 12:14:02;;;;;;;24.60;13.60;;;20.90;96.90;;;;;;10474894;28;20198;-80
2023/10/02 12:19:36;;;;;;;29.60;16.67;;;21.00;96.30;;;;;;10470242;28;20252;-80
2023/10/02 12:25:10;;;;;;;32.53;16.47;;;21.20;96.40;;;;;;10472063;28;20202;-81
2023/10/02 12:30:34;;;;;;;34.33;18.77;;;21.30;96.70;;;;;;10478000;28;20213;-81
2023/10/02 12:35:51;;;;;;;26.90;15.60;;;21.30;96.30;;;;;;10478591;28;20205;-80
2023/10/02 12:41:29;;;;;;;26.57;12.60;;;21.20;97.10;;;;;;10488167;28;20220;-80
2023/10/02 12:47:03;;;;;;;24.60;15.63;;;21.10;95.80;;;;;;10484928;28;20190;-80
2023/10/02 12:52:13;;;;;;;34.70;22.30;;;21.10;96.20;;;;;;10471638;28;20225;-81
2023/10/02 12:57:37;;;;;;;30.47;14.30;;;21.10;96.10;;;;;;10468030;28;20230;-81
2023/10/02 13:08:21;;;;;;;24.80;13.67;;;21.10;94.80;;;;;;10448488;28;20202;-82
2023/10/02 13:20:19;;;;;;;29.73;16.33;;;21.30;94.00;;;;;;10461608;28;20707;-82
2023/10/02 13:31:20;;;;;;;31.20;16.87;;;21.50;94.80;;;;;;10491301;28;20214;-82
2023/10/02 13:42:27;;;;;;;24.87;13.10;;;21.60;95.10;;;;;;10481665;28;20225;-81
2023/10/02 13:53:53;;;;;;;32.67;17.00;;;21.60;94.90;;;;;;10483207;28;20209;-81
2023/10/02 13:59:19;;;;;;;30.53;17.40;;;21.60;94.50;;;;;;10450196;28;20225;-82
2023/10/02 14:04:32;;;;;;;26.00;14.30;;;21.60;95.40;;;;;;10486848;28;20194;-82
2023/10/02 14:09:41;;;;;;;26.80;14.10;;;21.70;94.30;;;;;;10500931;28;20209;-82
2023/10/02 14:14:56;;;;;;;27.93;15.30;;;21.80;94.30;;;;;;10504802;28;20197;-82
2023/10/02 14:20:00;;;;;;;32.60;17.13;;;21.80;94.60;;;;;;10506438;28;20275;-82
2023/10/02 14:25:06;;;;;;;25.33;15.87;;;21.90;94.50;;;;;;10494545;28;20804;-82
2023/10/02 14:30:13;;;;;;;28.90;16.37;;;21.90;94.30;;;;;;10483141;28;20210;-82
2023/10/02 14:35:16;;;;;;;32.37;18.53;;;21.90;94.00;;;;;;10501819;28;20229;-83
2023/10/02 14:40:26;;;;;;;25.33;13.80;;;22.10;92.90;;;;;;10495073;28;20244;-82
2023/10/02 14:45:30;;;;;;;29.33;14.60;;;22.30;92.50;;;;;;10500872;28;20190;-81
2023/10/02 14:50:35;;;;;;;29.13;15.30;;;22.30;92.70;;;;;;10491647;28;20213;-81
2023/10/02 14:55:38;;;;;;;26.90;15.40;;;22.30;92.70;;;;;;10477210;28;20186;-81
2023/10/02 15:00:42;;;;;;;25.73;13.77;;;22.30;92.50;;;;;;10497445;28;20221;-82
2023/10/02 15:05:44;;;;;;;29.20;15.57;;;22.30;92.80;;;;;;10487808;28;20229;-83
2023/10/02 15:10:48;;;;;;;25.80;14.37;;;22.30;93.30;;;;;;10484978;28;20244;-81
2023/10/02 15:15:51;;;;;;;26.73;13.47;;;22.20;94.00;;;;;;10508808;28;20205;-81
2023/10/02 15:20:53;;;;;;;23.47;13.03;;;22.10;94.20;;;;;;10484974;28;20223;-81
2023/10/02 15:25:55;;;;;;;23.20;13.30;;;22.00;94.70;;;;;;10500274;28;20194;-83
2023/10/02 15:30:59;;;;;;;23.67;12.30;;;21.90;94.50;;;;;;10487166;28;20225;-81
2023/10/02 15:36:01;;;;;;;22.13;13.23;;;21.90;94.70;;;;;;10507629;28;20198;-82
2023/10/02 15:41:03;;;;;;;24.10;14.93;;;21.80;95.10;;;;;;10492947;28;20233;-82
2023/10/02 15:46:10;;;;;;;27.53;14.33;;;21.80;95.20;;;;;;10500145;28;20218;-82
2023/10/02 15:51:15;;;;;;;25.60;13.30;;;22.00;95.00;;;;;;10492563;28;20221;-82
2023/10/02 15:56:18;;;;;;;27.97;13.80;;;22.10;94.90;;;;;;10497096;28;20244;-82
2023/10/02 16:01:22;;;;;;;23.47;12.97;;;22.20;94.80;;;;;;10485207;28;20657;-82
2023/10/02 16:06:24;;;;;;;23.20;13.93;;;22.20;95.00;;;;;;10486170;28;20205;-82
2023/10/02 16:11:26;;;;;;;26.93;12.73;;;22.20;95.10;;;;;;10502222;28;20219;-82
2023/10/02 16:16:32;;;;;;;23.50;12.60;;;22.10;95.40;;;;;;10491164;28;20210;-82
2023/10/02 16:21:34;;;;;;;23.70;14.23;;;22.00;95.60;;;;;;10474857;28;20225;-82
2023/10/02 16:26:36;;;;;;;24.87;13.73;;;22.00;95.80;;;;;;10470079;28;20198;-82
2023/10/02 16:31:42;;;;;;;24.67;14.97;;;21.90;96.00;;;;;;10505090;28;20572;-83
2023/10/02 16:36:45;;;;;;;25.40;13.10;;;21.80;96.00;;;;;;10501707;28;20628;-82
2023/10/02 16:41:47;;;;;;;23.60;13.00;;;21.80;96.20;;;;;;10497020;22;20222;-83
2023/10/02 16:46:51;;;;;;;22.93;13.03;;;21.80;96.30;;;;;;10489620;28;20204;-83
2023/10/02 16:51:53;;;;;;;26.57;14.07;;;21.70;96.40;;;;;;10489974;28;20648;-83
2023/10/02 16:56:56;;;;;;;21.33;13.53;;;21.60;96.40;;;;;;10494913;28;20204;-83
2023/10/02 17:02:00;;;;;;;22.83;13.67;;;21.50;96.50;;;;;;10487775;28;20225;-83
2023/10/02 17:07:02;;;;;;;22.67;13.00;;;21.40;96.40;;;;;;10490226;28;20334;-83
2023/10/02 17:12:05;;;;;;;27.87;13.50;;;21.30;96.70;;;;;;10486362;28;20297;-83
2023/10/02 17:17:09;;;;;;;28.17;14.40;;;21.20;96.60;;;;;;10486486;28;20601;-83
2023/10/02 17:22:12;;;;;;;28.93;14.77;;;21.10;96.40;;;;;;10492868;28;20752;-83
2023/10/02 17:27:14;;;;;;;31.00;15.60;;;21.00;96.20;;;;;;10470133;28;20202;-83
2023/10/02 17:32:18;;;;;;;28.43;14.77;;;20.90;96.10;;;;;;10494082;28;20738;-83
2023/10/02 17:37:20;;;;;;;28.53;16.40;;;20.90;95.90;;;;;;10481126;28;20212;-83
2023/10/02 17:42:22;;;;;;;25.50;13.90;;;20.80;95.70;;;;;;10482947;28;20251;-83
2023/10/02 17:47:27;;;;;;;26.70;14.40;;;20.60;95.50;;;;;;10483700;28;20205;-83
2023/10/02 17:52:29;;;;;;;26.30;15.13;;;20.60;95.20;;;;;;10487709;28;20670;-83
2023/10/02 17:57:31;;;;;;;27.37;15.40;;;20.50;95.10;;;;;;10466611;28;20213;-83
2023/10/02 18:02:35;;;;;;;30.83;14.77;;;20.40;94.90;;;;;;10457076;28;20222;-83
2023/10/02 18:07:37;;;;;;;29.50;15.57;;;20.30;95.00;;;;;;10472006;28;20198;-83
2023/10/02 18:12:39;;;;;;;31.57;14.37;;;20.30;94.80;;;;;;10469297;28;20744;-83
2023/10/02 18:17:43;;;;;;;27.77;15.83;;;20.20;94.70;;;;;;10473388;28;20284;-80
2023/10/02 18:22:46;;;;;;;28.67;15.70;;;20.10;94.60;;;;;;10477649;28;20232;-83
2023/10/02 18:27:48;;;;;;;28.10;15.97;;;20.10;95.10;;;;;;10463445;28;20189;-83
2023/10/02 18:32:51;;;;;;;26.63;14.60;;;20.00;95.00;;;;;;10454791;28;20536;-83
2023/10/02 18:37:53;;;;;;;28.47;14.80;;;19.90;95.00;;;;;;10459758;28;20226;-82
2023/10/02 18:42:56;;;;;;;23.60;13.97;;;19.90;95.00;;;;;;10454517;28;20229;-83
2023/10/02 18:47:59;;;;;;;22.47;12.57;;;19.80;95.00;;;;;;10463379;28;20682;-82
2023/10/02 18:53:01;;;;;;;29.00;15.07;;;19.70;95.20;;;;;;10459221;28;20282;-82
2023/10/02 18:58:05;;;;;;;34.70;13.60;;;19.70;95.40;;;;;;10451902;28;20209;-83
2023/10/02 19:03:09;;;;;;;27.53;13.27;;;19.60;95.70;;;;;;10456288;28;20222;-83
2023/10/02 19:08:14;;;;;;;29.33;13.47;;;19.60;95.80;;;;;;10445936;28;20292;-82
2023/10/02 19:13:16;;;;;;;23.73;12.80;;;19.50;95.90;;;;;;10461833;28;20305;-83
2023/10/02 19:18:20;;;;;;;24.77;14.10;;;19.40;95.80;;;;;;10462463;28;20275;-82
2023/10/02 19:23:22;;;;;;;27.77;14.20;;;19.40;96.20;;;;;;10472187;28;20252;-80
2023/10/02 19:28:25;;;;;;;30.33;17.30;;;19.30;96.40;;;;;;10462008;28;20194;-82
2023/10/02 19:33:29;;;;;;;27.73;15.53;;;19.20;96.50;;;;;;10461386;28;20210;-80
2023/10/02 19:38:32;;;;;;;31.33;14.57;;;19.10;96.50;;;;;;10461141;28;20234;-82
2023/10/02 19:43:34;;;;;;;31.23;15.30;;;19.10;96.80;;;;;;10461044;28;20226;-82
2023/10/02 19:48:38;;;;;;;29.53;15.07;;;19.00;96.80;;;;;;10461975;28;20663;-81
2023/10/02 19:53:40;;;;;;;25.60;15.30;;;19.00;96.90;;;;;;10472028;28;20344;-81
2023/10/02 19:58:42;;;;;;;35.17;16.43;;;19.00;97.20;;;;;;10450065;28;20225;-82
2023/10/02 20:03:46;;;;;;;29.00;15.57;;;19.00;97.30;;;;;;10456822;28;20229;-81
2023/10/02 20:08:48;;;;;;;28.33;15.70;;;19.00;97.60;;;;;;10451715;28;20290;-82
2023/10/02 20:13:50;;;;;;;28.00;15.60;;;19.00;97.80;;;;;;10440189;28;20730;-81
2023/10/02 20:18:54;;;;;;;29.27;16.90;;;19.00;98.00;;;;;;10461831;28;20316;-82
2023/10/02 20:23:56;;;;;;;32.87;16.60;;;19.00;98.10;;;;;;10457395;28;20210;-82
2023/10/02 20:28:59;;;;;;;31.53;16.93;;;18.90;98.30;;;;;;10447297;28;20198;-80
2023/10/02 20:34:02;;;;;;;37.23;18.97;;;18.90;98.40;;;;;;10456882;28;20221;-81
2023/10/02 20:39:06;;;;;;;30.90;16.60;;;18.90;98.60;;;;;;10447422;28;20233;-82
2023/10/02 20:44:08;;;;;;;29.33;17.30;;;18.90;98.80;;;;;;10455933;28;20237;-82
2023/10/02 20:49:12;;;;;;;35.40;18.27;;;18.90;99.00;;;;;;10458028;28;20198;-82
2023/10/02 20:54:15;;;;;;;31.07;17.47;;;18.90;99.20;;;;;;10454955;28;20681;-82
2023/10/02 20:59:18;;;;;;;33.67;18.33;;;18.90;99.40;;;;;;10455604;28;20225;-80
2023/10/02 21:04:22;;;;;;;34.20;18.47;;;18.90;99.40;;;;;;10457124;28;20247;-79
2023/10/02 21:09:24;;;;;;;33.60;17.93;;;18.90;99.50;;;;;;10462723;28;20198;-81
2023/10/02 21:14:26;;;;;;;28.37;15.27;;;18.90;99.50;;;;;;10454287;28;20224;-81
2023/10/02 21:19:30;;;;;;;38.60;19.57;;;18.90;99.70;;;;;;10455780;28;20243;-81
2023/10/02 21:24:32;;;;;;;32.40;16.73;;;18.90;99.70;;;;;;10457430;28;20216;-82
2023/10/02 21:29:34;;;;;;;28.50;17.23;;;18.90;99.90;;;;;;10457236;28;20263;-82
2023/10/02 21:34:38;;;;;;;41.03;18.90;;;18.90;99.90;;;;;;10458584;28;20202;-82
2023/10/02 21:39:40;;;;;;;27.17;16.07;;;18.90;99.90;;;;;;10456686;28;20221;-79
2023/10/02 21:44:42;;;;;;;34.47;17.80;;;18.90;99.80;;;;;;10455582;28;20679;-80
2023/10/02 21:49:46;;;;;;;33.60;16.80;;;18.90;99.90;;;;;;10467272;28;20232;-80
2023/10/02 21:54:48;;;;;;;35.93;18.77;;;18.90;99.90;;;;;;10464013;28;20260;-81
2023/10/02 21:59:51;;;;;;;33.60;17.90;;;18.90;99.90;;;;;;10455715;28;20556;-80
2023/10/02 22:04:54;;;;;;;34.67;18.80;;;18.90;99.90;;;;;;10455992;28;20213;-81
2023/10/02 22:09:56;;;;;;;35.87;18.47;;;18.90;99.90;;;;;;10458332;28;20300;-81
2023/10/02 22:15:05;;;;;;;31.50;16.10;;;18.90;99.90;;;;;;10466176;28;20259;-81
2023/10/02 22:20:11;;;;;;;34.47;17.27;;;18.90;99.90;;;;;;10456563;28;20248;-81
2023/10/02 22:25:15;;;;;;;35.17;18.43;;;18.90;99.90;;;;;;10454311;28;20256;-81
2023/10/02 22:30:19;;;;;;;32.93;18.70;;;18.90;99.90;;;;;;10454403;28;20300;-82
2023/10/02 22:35:24;;;;;;;33.47;18.10;;;18.90;99.90;;;;;;10452966;28;20308;-83
2023/10/02 22:40:26;;;;;;;33.60;18.07;;;18.90;99.90;;;;;;10459527;28;20280;-82
2023/10/02 22:45:29;;;;;;;28.00;16.30;;;18.80;99.90;;;;;;10457840;28;20221;-81
2023/10/02 22:50:32;;;;;;;34.73;16.30;;;18.80;99.90;;;;;;10455811;28;20308;-82
2023/10/02 22:55:35;;;;;;;30.80;16.37;;;18.80;99.90;;;;;;10461933;28;20423;-83
2023/10/02 23:00:37;;;;;;;29.50;16.27;;;18.80;99.90;;;;;;10460300;28;20229;-83
2023/10/02 23:05:41;;;;;;;31.40;16.57;;;18.80;99.90;;;;;;10462707;28;20616;-82
2023/10/02 23:10:43;;;;;;;33.03;17.00;;;18.80;99.90;;;;;;10461683;28;20820;-83
2023/10/02 23:15:46;;;;;;;32.63;16.27;;;18.80;99.90;;;;;;10460068;28;20636;-83
2023/10/02 23:20:49;;;;;;;28.37;15.33;;;18.80;99.90;;;;;;10460051;28;20229;-82
2023/10/02 23:25:52;;;;;;;25.93;15.40;;;18.80;99.90;;;;;;10461097;28;20198;-81
2023/10/02 23:31:05;;;;;;;26.13;13.83;;;18.80;99.90;;;;;;10459658;28;20224;-81
2023/10/02 23:36:13;;;;;;;36.40;16.20;;;18.80;99.90;;;;;;10461126;28;20250;-78
2023/10/02 23:41:15;;;;;;;31.23;16.90;;;18.80;99.90;;;;;;10461292;28;20335;-82
2023/10/02 23:46:17;;;;;;;29.87;16.73;;;18.80;99.90;;;;;;10461062;28;20194;-82
2023/10/02 23:51:21;;;;;;;24.37;14.77;;;18.80;99.90;;;;;;10469374;28;20288;-80
2023/10/02 23:56:25;;;;;;;25.47;13.90;;;18.80;99.90;;;;;;10460839;28;20206;-79
